createdAt,value
2019-02-05T00:00:36.356Z,19.03
2019-02-05T00:05:49.832Z,20.07
2019-02-05T00:11:05.446Z,19.23
2019-02-05T00:16:16.229Z,18.37
2019-02-05T00:21:28.261Z,18.05
2019-02-05T00:26:42.769Z,18.57
2019-02-05T00:31:51.738Z,20.90
2019-02-05T00:37:07.588Z,21.73
2019-02-05T00:42:16.070Z,22.70
2019-02-05T00:47:26.846Z,21.50
2019-02-05T00:52:38.507Z,21.80
2019-02-05T00:57:56.843Z,21.07
2019-02-05T01:03:04.214Z,21.57
2019-02-05T01:08:12.979Z,23.37
2019-02-05T01:13:24.720Z,24.50
2019-02-05T01:18:33.978Z,21.47
2019-02-05T01:23:42.346Z,23.80
2019-02-05T01:28:51.110Z,26.93
2019-02-05T01:33:59.726Z,28.03
2019-02-05T01:39:09.673Z,26.57
2019-02-05T01:44:23.436Z,27.10
2019-02-05T01:49:34.777Z,28.80
2019-02-05T01:54:42.149Z,27.80
2019-02-05T01:59:52.978Z,29.07
2019-02-05T02:05:02.202Z,30.67
2019-02-05T02:10:12.209Z,30.63
2019-02-05T02:15:24.748Z,28.20
2019-02-05T02:20:36.202Z,31.87
2019-02-05T02:25:45.193Z,32.20
2019-02-05T02:30:52.611Z,35.93
2019-02-05T02:36:04.399Z,43.77
2019-02-05T02:41:21.646Z,41.53
2019-02-05T02:46:32.550Z,35.83
2019-02-05T02:51:45.483Z,45.13
2019-02-05T02:57:04.918Z,39.87
2019-02-05T03:02:13.542Z,46.97
2019-02-05T03:07:25.554Z,51.70
2019-02-05T03:12:35.650Z,46.53
2019-02-05T03:17:52.070Z,53.87
2019-02-05T03:23:01.094Z,54.47
2019-02-05T03:28:12.841Z,58.03
2019-02-05T03:33:22.852Z,54.23
2019-02-05T03:38:29.707Z,59.03
2019-02-05T03:43:39.524Z,62.97
2019-02-05T03:48:56.100Z,54.53
2019-02-05T03:54:16.299Z,52.80
2019-02-05T03:59:44.330Z,65.53
2019-02-05T04:05:28.313Z,61.07
2019-02-05T04:11:19.588Z,77.33
2019-02-05T04:17:34.902Z,73.13
2019-02-05T04:22:59.751Z,88.07
2019-02-05T04:28:31.496Z,82.70
2019-02-05T04:33:59.015Z,98.12
2019-02-05T04:39:50.194Z,93.57
2019-02-05T04:45:53.002Z,103.20
2019-02-05T04:51:29.930Z,92.17
2019-02-05T04:57:20.379Z,112.67
2019-02-05T05:02:55.447Z,96.60
2019-02-05T05:08:52.207Z,119.10
2019-02-05T05:14:05.670Z,115.63
2019-02-05T05:19:19.399Z,110.55
2019-02-05T05:24:35.046Z,116.93
2019-02-05T05:29:46.828Z,101.07
2019-02-05T05:35:01.578Z,89.23
2019-02-05T05:40:11.018Z,99.53
2019-02-05T05:45:24.945Z,98.23
2019-02-05T05:50:33.080Z,102.60
2019-02-05T05:55:48.138Z,109.33
2019-02-05T06:01:02.054Z,85.17
2019-02-05T06:06:16.101Z,85.13
2019-02-05T06:11:45.050Z,84.67
2019-02-05T06:16:55.596Z,94.80
2019-02-05T06:22:08.334Z,83.80
2019-02-05T06:27:18.681Z,90.15
2019-02-05T06:32:30.542Z,86.67
2019-02-05T06:37:41.405Z,81.53
2019-02-05T06:42:55.028Z,90.20
2019-02-05T06:48:24.945Z,88.97
2019-02-05T06:53:33.497Z,85.67
2019-02-05T06:58:46.398Z,87.53
2019-02-05T07:03:54.612Z,87.23
2019-02-05T07:09:04.795Z,90.30
2019-02-05T07:14:15.769Z,90.17
2019-02-05T07:19:26.766Z,90.50
2019-02-05T07:24:41.331Z,82.03
2019-02-05T07:29:54.199Z,86.40
2019-02-05T07:35:03.646Z,81.43
2019-02-05T07:40:15.400Z,69.73
2019-02-05T07:45:26.651Z,82.27
2019-02-05T07:50:35.841Z,73.47
2019-02-05T07:55:47.153Z,72.57
2019-02-05T08:01:02.866Z,78.07
2019-02-05T08:06:12.904Z,88.53
2019-02-05T08:11:27.664Z,79.27
2019-02-05T08:16:38.591Z,90.63
2019-02-05T08:21:49.252Z,84.40
2019-02-05T08:26:58.444Z,94.77
2019-02-05T08:32:08.810Z,101.00
2019-02-05T08:37:24.333Z,78.35
2019-02-05T08:42:35.417Z,71.63
2019-02-05T08:47:43.768Z,82.13
2019-02-05T08:52:51.522Z,73.77
2019-02-05T08:58:05.305Z,62.70
2019-02-05T09:03:14.065Z,55.57
2019-02-05T09:08:27.612Z,61.50
2019-02-05T09:13:40.054Z,58.77
2019-02-05T09:18:54.040Z,53.07
2019-02-05T09:24:06.857Z,65.03
2019-02-05T09:29:18.966Z,65.32
2019-02-05T09:34:34.392Z,54.37
2019-02-05T09:39:48.210Z,58.40
2019-02-05T09:45:00.048Z,61.97
2019-02-05T09:50:31.048Z,58.40
2019-02-05T09:55:41.320Z,51.33
2019-02-05T10:00:52.300Z,56.00
2019-02-05T10:06:04.531Z,46.47
2019-02-05T10:11:17.841Z,50.57
2019-02-05T10:16:29.967Z,51.08
2019-02-05T10:21:40.019Z,53.00
2019-02-05T10:26:51.869Z,49.27
2019-02-05T10:32:03.758Z,53.63
2019-02-05T10:37:16.492Z,49.93
2019-02-05T10:42:31.091Z,46.80
2019-02-05T10:47:41.042Z,46.43
2019-02-05T10:52:59.501Z,51.03
2019-02-05T10:58:13.649Z,47.97
2019-02-05T11:03:23.174Z,50.63
2019-02-05T11:08:39.264Z,48.33
2019-02-05T11:13:52.904Z,45.43
2019-02-05T11:19:06.743Z,46.27
2019-02-05T11:24:18.820Z,44.18
2019-02-05T11:29:35.895Z,47.93
2019-02-05T11:34:48.627Z,44.50
2019-02-05T11:40:04.787Z,46.77
2019-02-05T11:45:19.758Z,46.23
2019-02-05T11:50:32.620Z,44.90
2019-02-05T11:55:44.662Z,43.77
2019-02-05T12:00:57.840Z,47.10
2019-02-05T12:06:07.549Z,47.53
2019-02-05T12:11:17.545Z,45.60
2019-02-05T12:16:29.880Z,48.98
2019-02-05T12:21:47.359Z,47.27
2019-02-05T12:26:55.465Z,47.50
2019-02-05T12:32:07.522Z,42.37
2019-02-05T12:37:19.431Z,41.45
2019-02-05T12:42:34.923Z,41.20
2019-02-05T12:47:48.144Z,38.17
2019-02-05T12:53:04.363Z,39.37
2019-02-05T12:58:17.056Z,39.23
2019-02-05T13:03:32.175Z,33.63
2019-02-05T13:08:42.234Z,39.87
2019-02-05T13:13:53.007Z,39.47
2019-02-05T13:19:02.186Z,39.93
2019-02-05T13:24:16.661Z,44.77
2019-02-05T13:29:23.251Z,35.83
2019-02-05T13:34:36.027Z,39.67
2019-02-05T13:39:46.895Z,37.17
2019-02-05T13:45:03.423Z,39.90
2019-02-05T13:50:13.758Z,37.78
2019-02-05T13:55:23.509Z,38.67
2019-02-05T14:00:38.452Z,38.43
2019-02-05T14:05:51.190Z,38.43
2019-02-05T14:11:04.984Z,37.97
2019-02-05T14:16:17.038Z,42.25
2019-02-05T14:21:29.733Z,44.98
2019-02-05T14:26:43.511Z,51.17
2019-02-05T14:31:55.716Z,46.87
2019-02-05T14:37:05.788Z,52.90
2019-02-05T14:42:14.895Z,57.58
2019-02-05T14:47:31.022Z,56.37
2019-02-05T14:52:38.515Z,59.53
2019-02-05T14:57:49.561Z,57.90
2019-02-05T15:03:02.434Z,71.03
2019-02-05T15:08:14.544Z,72.17
2019-02-05T15:13:25.552Z,71.95
2019-02-05T15:18:40.323Z,70.20
2019-02-05T15:23:55.826Z,76.43
2019-02-05T15:29:06.735Z,72.58
2019-02-05T15:34:24.240Z,69.83
2019-02-05T15:39:36.943Z,70.43
2019-02-05T15:44:47.000Z,70.07
2019-02-05T15:50:06.210Z,73.30
2019-02-05T15:55:20.976Z,70.70
2019-02-05T16:00:34.739Z,69.53
2019-02-05T16:05:43.955Z,67.37
2019-02-05T16:10:58.574Z,69.37
2019-02-05T16:16:10.588Z,62.03
2019-02-05T16:21:26.772Z,61.37
2019-02-05T16:26:40.450Z,67.27
2019-02-05T16:31:51.254Z,58.73
2019-02-05T16:36:59.613Z,59.17
2019-02-05T16:42:12.334Z,60.43
2019-02-05T16:47:25.529Z,58.75
2019-02-05T16:52:36.466Z,56.67
2019-02-05T16:57:50.174Z,54.93
2019-02-05T17:03:04.274Z,48.20
2019-02-05T17:08:16.563Z,50.13
2019-02-05T17:13:26.611Z,44.03
2019-02-05T17:18:40.308Z,44.40
2019-02-05T17:23:53.999Z,45.87
2019-02-05T17:29:06.797Z,47.43
2019-02-05T17:34:17.034Z,44.05
2019-02-05T17:39:27.791Z,39.85
2019-02-05T17:44:44.049Z,37.13
2019-02-05T17:49:56.501Z,38.20
2019-02-05T17:55:14.004Z,36.07
2019-02-05T18:00:54.192Z,36.37
2019-02-05T18:06:02.361Z,42.93
2019-02-05T18:11:12.702Z,41.60
2019-02-05T18:16:24.506Z,44.00
2019-02-05T18:21:32.886Z,38.17
2019-02-05T18:26:43.737Z,40.00
2019-02-05T18:31:56.496Z,45.13
2019-02-05T18:37:14.001Z,44.67
2019-02-05T18:42:24.885Z,48.07
2019-02-05T18:47:37.717Z,49.77
2019-02-05T18:52:50.868Z,46.87
2019-02-05T18:58:08.924Z,46.83
2019-02-05T19:03:15.699Z,46.77
2019-02-05T19:08:28.614Z,44.20
2019-02-05T19:13:41.292Z,41.33
2019-02-05T19:18:48.742Z,45.80
2019-02-05T19:24:07.988Z,43.13
2019-02-05T19:29:23.832Z,37.27
2019-02-05T19:34:37.479Z,37.03
2019-02-05T19:39:47.702Z,37.50
2019-02-05T19:45:13.380Z,38.07
2019-02-05T19:50:23.989Z,34.70
2019-02-05T19:55:32.319Z,37.33
2019-02-05T20:00:46.623Z,36.27
2019-02-05T20:07:36.451Z,35.43
2019-02-05T20:12:47.231Z,36.73
2019-02-05T20:17:56.686Z,38.30
2019-02-05T20:23:08.752Z,34.93
2019-02-05T20:28:15.671Z,33.70
2019-02-05T20:33:24.399Z,32.23
2019-02-05T20:38:34.554Z,35.40
2019-02-05T20:43:46.890Z,34.03
2019-02-05T20:48:59.824Z,35.50
2019-02-05T20:54:07.957Z,36.80
2019-02-05T20:59:20.910Z,38.90
2019-02-05T21:04:35.574Z,38.23
2019-02-05T21:09:49.426Z,37.43
2019-02-05T21:15:01.035Z,40.30
2019-02-05T21:20:09.475Z,36.77
2019-02-05T21:25:21.870Z,35.43
2019-02-05T21:30:32.402Z,35.67
2019-02-05T21:35:40.340Z,37.97
2019-02-05T21:40:48.393Z,35.13
2019-02-05T21:46:01.290Z,33.97
2019-02-05T21:51:11.167Z,38.60
2019-02-05T21:56:26.861Z,38.30
2019-02-05T22:01:35.403Z,36.47
2019-02-05T22:06:48.164Z,39.17
2019-02-05T22:12:02.142Z,40.50
2019-02-05T22:17:13.923Z,40.23
2019-02-05T22:22:26.535Z,38.95
2019-02-05T22:27:37.523Z,38.43
2019-02-05T22:32:49.643Z,37.30
2019-02-05T22:38:10.613Z,32.57
2019-02-05T22:43:25.713Z,34.53
2019-02-05T22:48:37.529Z,28.13
2019-02-05T22:59:22.707Z,25.32
2019-02-05T23:05:14.199Z,24.07
2019-02-05T23:11:03.104Z,25.60
2019-02-05T23:16:07.282Z,22.30
2019-02-05T23:21:22.383Z,19.60
2019-02-05T23:26:37.610Z,19.70
2019-02-05T23:31:51.257Z,17.35
2019-02-05T23:37:00.333Z,15.90
2019-02-05T23:42:08.245Z,14.83
2019-02-05T23:47:18.562Z,12.53
2019-02-05T23:52:31.468Z,12.05
2019-02-05T23:57:42.046Z,16.20
